Time;durP1;ratioP1;P1;durP2;ratioP2;P2;SDS_P1;SDS_P2;PMS_P1;PMS_P2;Temp;Humidity;BMP_temperature;BMP_pressure;BME280_temperature;BME280_humidity;BME280_pressure;Samples;Min_cycle;Max_cycle;Signal;HPM_P1;HPM_P2
2022/09/09 00:01:12;;;;;;;23.25;20.75;;;14.00;93.10;;;;;;4991669;28;20073;-49
2022/09/09 00:03:47;;;;;;;25.45;21.33;;;14.00;93.10;;;;;;4992946;28;20101;-52
2022/09/09 00:06:28;;;;;;;25.77;21.13;;;13.90;93.20;;;;;;4991381;28;20034;-55
2022/09/09 00:09:15;;;;;;;26.45;20.48;;;14.00;93.40;;;;;;4990487;28;20030;-53
2022/09/09 00:11:56;;;;;;;26.73;21.70;;;14.00;93.30;;;;;;4998261;28;20035;-50
2022/09/09 00:14:49;;;;;;;28.52;20.42;;;14.10;93.30;;;;;;4999353;28;20359;-52
2022/09/09 00:17:36;;;;;;;33.22;24.10;;;14.00;93.40;;;;;;4997329;28;20041;-54
2022/09/09 00:20:13;;;;;;;24.67;22.05;;;14.10;93.40;;;;;;5003253;28;20088;-56
2022/09/09 00:22:45;;;;;;;27.50;21.73;;;14.00;93.30;;;;;;4999434;28;20037;-52
2022/09/09 00:25:40;;;;;;;28.00;21.05;;;14.00;93.30;;;;;;4997027;28;20034;-52
2022/09/09 00:28:22;;;;;;;28.48;22.08;;;13.90;93.30;;;;;;5000098;28;20455;-53
2022/09/09 00:30:50;;;;;;;28.38;21.52;;;13.90;93.30;;;;;;4999091;28;20450;-55
2022/09/09 00:33:21;;;;;;;26.38;20.95;;;13.90;93.40;;;;;;5001877;28;20043;-54
2022/09/09 00:35:53;;;;;;;26.77;21.83;;;13.90;93.30;;;;;;5007130;28;20029;-54
2022/09/09 00:38:26;;;;;;;30.38;21.88;;;13.90;93.40;;;;;;5007586;28;20037;-55
2022/09/09 00:41:26;;;;;;;30.52;22.02;;;13.90;93.40;;;;;;4973754;28;20023;-55
2022/09/09 00:44:02;;;;;;;25.65;20.85;;;13.90;93.30;;;;;;4979241;28;20034;-55
2022/09/09 00:47:06;;;;;;;25.08;20.65;;;13.90;93.30;;;;;;5003330;28;20036;-56
2022/09/09 00:50:08;;;;;;;28.80;20.50;;;13.90;93.40;;;;;;4994076;28;20207;-52
2022/09/09 00:52:43;;;;;;;22.73;19.30;;;13.90;93.40;;;;;;4973660;28;20157;-55
2022/09/09 00:55:25;;;;;;;24.98;22.13;;;13.90;93.50;;;;;;4988650;28;20050;-55
2022/09/09 00:57:52;;;;;;;25.08;22.10;;;13.90;93.50;;;;;;4993058;28;20027;-56
2022/09/09 01:00:20;;;;;;;27.23;20.85;;;13.90;93.50;;;;;;4992394;28;20048;-53
2022/09/09 01:03:10;;;;;;;25.13;21.15;;;13.90;93.60;;;;;;4992020;28;20426;-53
2022/09/09 01:05:43;;;;;;;24.77;20.35;;;13.90;93.50;;;;;;4975526;28;20043;-55
2022/09/09 01:08:31;;;;;;;21.33;18.25;;;13.90;93.40;;;;;;4972660;28;20106;-54
2022/09/09 01:10:59;;;;;;;26.45;20.10;;;13.90;93.40;;;;;;4973497;28;20085;-55
2022/09/09 01:13:36;;;;;;;24.05;21.50;;;13.90;93.30;;;;;;4975323;28;20460;-55
2022/09/09 01:16:05;;;;;;;26.30;22.35;;;13.90;93.30;;;;;;4980569;28;20062;-56
2022/09/09 01:18:38;;;;;;;25.15;21.00;;;13.90;93.40;;;;;;4974862;28;20043;-56
2022/09/09 01:21:26;;;;;;;26.60;21.88;;;13.90;93.30;;;;;;4988951;28;20382;-55
2022/09/09 01:23:57;;;;;;;20.77;18.02;;;13.90;93.40;;;;;;4990034;28;20023;-56
2022/09/09 01:26:41;;;;;;;22.60;19.63;;;13.90;93.30;;;;;;4992520;28;20471;-54
2022/09/09 01:29:28;;;;;;;23.00;18.75;;;13.80;93.30;;;;;;4992681;28;20038;-55
2022/09/09 01:32:02;;;;;;;24.52;18.85;;;13.80;93.30;;;;;;4979454;28;20818;-55
2022/09/09 01:34:35;;;;;;;24.40;20.10;;;13.80;93.20;;;;;;4977629;28;20023;-54
2022/09/09 01:37:07;;;;;;;22.20;18.17;;;13.80;93.20;;;;;;5004373;28;20058;-57
2022/09/09 01:39:35;;;;;;;20.80;18.60;;;13.80;93.20;;;;;;4979597;28;20018;-53
2022/09/09 01:42:03;;;;;;;21.70;18.10;;;13.80;93.20;;;;;;4999874;28;20034;-53
2022/09/09 01:44:29;;;;;;;20.13;17.92;;;13.70;93.10;;;;;;4979081;28;20171;-57
2022/09/09 01:46:55;;;;;;;21.67;18.23;;;13.80;93.10;;;;;;4990796;28;20054;-54
2022/09/09 01:49:21;;;;;;;22.58;19.52;;;13.70;93.10;;;;;;4991177;28;20049;-56
2022/09/09 01:51:52;;;;;;;20.98;18.77;;;13.70;93.10;;;;;;4991985;28;20022;-56
2022/09/09 01:54:21;;;;;;;24.33;19.45;;;13.70;93.20;;;;;;4991918;28;20040;-56
2022/09/09 01:57:21;;;;;;;21.25;18.27;;;13.60;93.20;;;;;;4991733;28;20026;-54
2022/09/09 02:00:11;;;;;;;25.20;20.95;;;13.60;93.20;;;;;;4990870;28;20431;-52
2022/09/09 02:02:59;;;;;;;21.77;19.45;;;13.70;93.30;;;;;;4972596;28;20053;-56
2022/09/09 02:05:28;;;;;;;22.70;19.83;;;13.60;93.30;;;;;;4983288;28;20030;-54
2022/09/09 02:08:06;;;;;;;21.95;19.63;;;13.70;93.20;;;;;;4980746;28;20379;-55
2022/09/09 02:10:57;;;;;;;22.77;19.83;;;13.70;93.30;;;;;;4994514;28;20030;-53
2022/09/09 02:13:27;;;;;;;28.17;20.42;;;13.70;93.30;;;;;;4997909;28;20444;-55
2022/09/09 02:16:09;;;;;;;20.08;17.95;;;13.70;93.20;;;;;;5000896;28;20038;-54
2022/09/09 02:18:44;;;;;;;21.55;18.20;;;13.70;93.20;;;;;;4991774;28;20092;-56
2022/09/09 02:21:13;;;;;;;21.55;19.35;;;13.70;93.20;;;;;;4990220;28;20030;-53
2022/09/09 02:23:46;;;;;;;22.73;20.33;;;13.70;93.20;;;;;;4990617;28;20447;-55
2022/09/09 02:26:20;;;;;;;27.05;20.02;;;13.70;93.20;;;;;;4990645;28;20034;-53
2022/09/09 02:28:49;;;;;;;22.40;19.80;;;13.60;93.10;;;;;;4991448;28;20451;-55
2022/09/09 02:31:19;;;;;;;22.92;20.52;;;13.60;93.10;;;;;;4990080;28;20042;-52
2022/09/09 02:33:52;;;;;;;23.65;20.20;;;13.60;93.10;;;;;;4991079;28;20034;-53
2022/09/09 02:36:19;;;;;;;23.85;18.48;;;13.60;93.10;;;;;;4989631;28;20029;-54
2022/09/09 02:38:52;;;;;;;26.10;20.27;;;13.60;93.20;;;;;;5005555;28;20060;-53
2022/09/09 02:41:22;;;;;;;21.67;18.05;;;13.60;93.10;;;;;;4989234;28;20038;-57
2022/09/09 02:43:51;;;;;;;;;;;13.60;93.10;;;;;;4991309;28;20362;-56
2022/09/09 02:46:35;;;;;;;23.30;20.15;;;13.60;93.10;;;;;;4990044;28;19917;-56
2022/09/09 02:49:08;;;;;;;28.42;21.10;;;13.60;93.20;;;;;;4989984;28;20501;-56
2022/09/09 02:52:00;;;;;;;20.33;17.85;;;13.60;93.20;;;;;;4990109;28;20073;-51
2022/09/09 02:54:31;;;;;;;29.40;22.63;;;13.60;93.30;;;;;;4987981;28;20025;-52
2022/09/09 02:57:18;;;;;;;25.38;20.50;;;13.60;93.20;;;;;;4971301;28;20094;-55
2022/09/09 02:59:44;;;;;;;27.10;21.77;;;13.60;93.20;;;;;;4988736;28;20082;-57
2022/09/09 03:02:13;;;;;;;22.58;19.67;;;13.60;93.30;;;;;;4976935;28;20340;-52
2022/09/09 03:04:39;;;;;;;26.02;22.08;;;13.60;93.20;;;;;;5005594;28;20045;-55
2022/09/09 03:07:05;;;;;;;23.90;20.17;;;13.60;93.20;;;;;;4990478;28;20053;-56
2022/09/09 03:09:32;;;;;;;24.30;21.30;;;13.60;93.20;;;;;;4988921;28;20073;-54
2022/09/09 03:12:00;;;;;;;25.23;20.65;;;13.60;93.30;;;;;;4971620;28;20027;-53
2022/09/09 03:14:26;;;;;;;22.38;19.23;;;13.60;93.30;;;;;;4972239;28;20066;-53
2022/09/09 03:16:56;;;;;;;26.33;21.80;;;13.60;93.30;;;;;;4988354;28;20135;-55
2022/09/09 03:19:21;;;;;;;;;;;13.60;93.30;;;;;;4989198;28;20401;-55
2022/09/09 03:21:47;;;;;;;28.92;20.77;;;13.70;93.40;;;;;;4990101;28;19948;-53
2022/09/09 03:24:14;;;;;;;28.80;22.58;;;13.70;93.40;;;;;;4990043;28;20034;-54
2022/09/09 03:26:40;;;;;;;27.00;21.85;;;13.70;93.40;;;;;;4976769;28;20402;-55
2022/09/09 03:29:07;;;;;;;29.65;21.17;;;13.70;93.40;;;;;;4978943;28;20034;-56
2022/09/09 03:31:36;;;;;;;26.88;20.05;;;13.70;93.30;;;;;;4989058;28;20036;-50
2022/09/09 03:34:02;;;;;;;22.27;19.87;;;13.70;93.30;;;;;;4974153;28;20080;-52
2022/09/09 03:36:28;;;;;;;25.33;20.25;;;13.70;93.30;;;;;;4973957;28;20039;-51
2022/09/09 03:38:54;;;;;;;22.23;19.05;;;13.70;93.30;;;;;;5002079;28;20027;-55
2022/09/09 03:41:23;;;;;;;23.83;20.13;;;13.60;93.30;;;;;;5003746;28;20030;-54
2022/09/09 03:43:51;;;;;;;24.05;21.50;;;13.70;93.30;;;;;;5004534;28;20151;-54
2022/09/09 03:46:19;;;;;;;25.35;20.75;;;13.60;93.30;;;;;;4990225;28;20042;-53
2022/09/09 03:48:45;;;;;;;24.83;20.05;;;13.60;93.30;;;;;;4989321;28;20039;-50
2022/09/09 03:51:10;;;;;;;23.10;20.25;;;13.60;93.30;;;;;;5005422;28;20035;-53
2022/09/09 03:53:37;;;;;;;23.23;20.80;;;13.60;93.30;;;;;;4988897;28;20034;-56
2022/09/09 03:56:06;;;;;;;25.88;20.48;;;13.60;93.30;;;;;;4986802;28;20050;-53
2022/09/09 03:58:37;;;;;;;22.48;18.73;;;13.60;93.30;;;;;;4970783;28;20058;-55
2022/09/09 04:01:08;;;;;;;25.95;20.38;;;13.60;93.30;;;;;;4978464;28;20034;-52
2022/09/09 04:03:36;;;;;;;26.55;19.95;;;13.60;93.30;;;;;;4989437;28;20026;-52
2022/09/09 04:06:07;;;;;;;23.27;18.42;;;13.50;93.30;;;;;;4989264;28;20080;-54
2022/09/09 04:08:33;;;;;;;23.77;18.42;;;13.60;93.30;;;;;;4988732;28;20023;-54
2022/09/09 04:11:04;;;;;;;22.33;18.25;;;13.50;93.30;;;;;;4970383;28;20041;-54
2022/09/09 04:13:30;;;;;;;21.17;17.83;;;13.60;93.30;;;;;;4969537;28;20026;-56
2022/09/09 04:16:00;;;;;;;22.63;17.48;;;13.60;93.30;;;;;;4987959;28;20045;-52
2022/09/09 04:18:27;;;;;;;19.38;17.10;;;13.60;93.30;;;;;;4989084;28;20248;-55
2022/09/09 04:20:56;;;;;;;19.73;17.58;;;13.60;93.30;;;;;;4988812;28;20031;-53
2022/09/09 04:23:24;;;;;;;21.97;19.60;;;13.60;93.20;;;;;;4988218;28;20052;-53
2022/09/09 04:25:56;;;;;;;24.33;17.48;;;13.50;93.10;;;;;;4996035;28;20057;-54
2022/09/09 04:28:23;;;;;;;20.45;17.27;;;13.50;93.10;;;;;;4982085;28;20027;-55
2022/09/09 04:30:49;;;;;;;25.15;18.70;;;13.50;93.10;;;;;;4976596;28;20035;-55
2022/09/09 04:33:17;;;;;;;23.77;17.40;;;13.50;93.10;;;;;;4970394;28;20019;-54
2022/09/09 04:35:49;;;;;;;20.80;18.08;;;13.50;93.20;;;;;;4984334;28;20026;-52
2022/09/09 04:38:17;;;;;;;28.33;20.33;;;13.40;93.10;;;;;;4989549;28;20463;-55
2022/09/09 04:40:54;;;;;;;23.27;17.80;;;13.50;93.10;;;;;;4988234;28;20030;-49
2022/09/09 04:43:20;;;;;;;27.80;18.40;;;13.50;93.20;;;;;;4991024;28;20031;-51
2022/09/09 04:45:51;;;;;;;22.63;17.50;;;13.50;93.30;;;;;;4988368;28;20129;-55
2022/09/09 04:48:17;;;;;;;24.88;19.52;;;13.50;93.30;;;;;;4973745;28;20041;-55
2022/09/09 04:50:43;;;;;;;23.98;18.63;;;13.50;93.30;;;;;;4985614;28;20034;-56
2022/09/09 04:53:11;;;;;;;27.73;20.23;;;13.50;93.20;;;;;;4993289;28;20030;-56
2022/09/09 04:55:37;;;;;;;24.08;18.52;;;13.50;93.30;;;;;;4993374;28;20092;-54
2022/09/09 04:58:05;;;;;;;24.25;19.40;;;13.60;93.30;;;;;;5028192;28;20080;-52
2022/09/09 05:00:30;;;;;;;26.90;19.45;;;13.60;93.30;;;;;;4983936;28;20041;-55
2022/09/09 05:02:56;;;;;;;22.80;18.85;;;13.60;93.30;;;;;;4974869;28;20446;-52
2022/09/09 05:05:22;;;;;;;21.58;18.63;;;13.60;93.20;;;;;;4974122;28;20057;-54
2022/09/09 05:07:48;;;;;;;22.00;18.48;;;13.60;93.30;;;;;;4973636;28;20034;-52
2022/09/09 05:10:16;;;;;;;23.35;18.52;;;13.70;93.30;;;;;;4988380;28;20060;-53
2022/09/09 05:12:42;;;;;;;22.33;18.40;;;13.70;93.30;;;;;;5011767;28;20355;-52
2022/09/09 05:15:09;;;;;;;20.17;17.08;;;13.70;93.30;;;;;;5001585;28;20015;-54
2022/09/09 05:17:35;;;;;;;22.33;18.08;;;13.70;93.30;;;;;;5007730;28;20034;-56
2022/09/09 05:20:01;;;;;;;19.73;17.60;;;13.80;93.20;;;;;;4987216;28;20033;-52
2022/09/09 05:22:26;;;;;;;23.58;18.13;;;13.80;93.20;;;;;;4973166;28;20039;-53
2022/09/09 05:24:52;;;;;;;20.25;15.95;;;13.70;93.10;;;;;;4976820;28;20045;-50
2022/09/09 05:27:21;;;;;;;19.60;17.33;;;13.70;93.10;;;;;;4980580;28;20038;-54
2022/09/09 05:29:47;;;;;;;22.92;16.92;;;13.70;93.10;;;;;;4974851;28;20027;-54
2022/09/09 05:32:15;;;;;;;20.95;16.58;;;13.70;93.10;;;;;;4993385;28;20022;-54
2022/09/09 05:34:40;;;;;;;19.17;16.27;;;13.70;93.20;;;;;;4991711;28;20029;-51
2022/09/09 05:37:08;;;;;;;24.35;17.50;;;13.70;93.20;;;;;;5005858;28;20034;-53
2022/09/09 05:39:37;;;;;;;21.75;16.85;;;13.70;93.20;;;;;;4999522;28;20014;-53
2022/09/09 05:42:04;;;;;;;20.02;16.15;;;13.80;93.30;;;;;;4999850;28;20063;-52
2022/09/09 05:44:29;;;;;;;22.00;16.55;;;13.80;93.20;;;;;;5002092;28;20050;-50
2022/09/09 05:46:55;;;;;;;18.50;16.40;;;13.90;93.20;;;;;;4995858;28;20018;-55
2022/09/09 05:49:23;;;;;;;22.23;16.27;;;13.90;93.20;;;;;;5015481;28;20333;-52
2022/09/09 05:51:50;;;;;;;16.45;13.63;;;13.90;93.10;;;;;;5003061;28;20034;-52
2022/09/09 05:54:18;;;;;;;16.95;14.52;;;14.00;93.10;;;;;;5001167;28;20447;-54
2022/09/09 05:56:44;;;;;;;18.92;15.25;;;14.00;93.00;;;;;;4999607;28;20121;-49
2022/09/09 05:59:11;;;;;;;16.85;14.55;;;14.00;93.00;;;;;;5003463;28;20027;-53
2022/09/09 06:01:40;;;;;;;21.20;14.75;;;14.00;93.00;;;;;;4998967;28;20030;-52
2022/09/09 06:04:06;;;;;;;23.53;14.97;;;14.00;92.90;;;;;;4997299;28;20030;-54
2022/09/09 06:06:36;;;;;;;19.08;14.25;;;13.90;92.90;;;;;;5001133;28;20435;-54
2022/09/09 06:09:06;;;;;;;15.35;13.82;;;14.00;92.90;;;;;;4998891;28;20065;-54
2022/09/09 06:11:35;;;;;;;16.85;13.15;;;13.90;92.90;;;;;;4997904;28;20038;-51
2022/09/09 06:14:01;;;;;;;18.88;16.05;;;13.90;92.90;;;;;;4999711;28;20052;-51
2022/09/09 06:16:28;;;;;;;20.83;16.50;;;14.00;93.10;;;;;;4999047;28;20069;-51
2022/09/09 06:18:58;;;;;;;19.40;16.90;;;14.10;93.20;;;;;;5010475;28;20477;-50
2022/09/09 06:21:33;;;;;;;19.77;16.20;;;14.30;93.30;;;;;;4985226;28;20150;-48
2022/09/09 06:23:59;;;;;;;18.33;14.18;;;14.30;93.00;;;;;;4988616;28;20113;-49
2022/09/09 06:26:35;;;;;;;18.25;15.05;;;14.40;93.10;;;;;;4988159;28;20033;-51
2022/09/09 06:29:03;;;;;;;15.82;13.30;;;14.40;93.10;;;;;;4980722;28;20034;-50
2022/09/09 06:31:30;;;;;;;16.88;15.07;;;14.50;93.20;;;;;;4974101;28;20514;-52
2022/09/09 06:33:57;;;;;;;14.90;12.90;;;14.70;93.10;;;;;;4972935;28;20027;-50
2022/09/09 06:36:28;;;;;;;17.65;13.43;;;14.90;93.00;;;;;;4986551;28;20050;-54
2022/09/09 06:38:54;;;;;;;15.55;12.82;;;15.00;93.00;;;;;;4980153;28;20404;-54
2022/09/09 06:41:25;;;;;;;13.25;11.85;;;15.00;92.70;;;;;;4981110;28;20030;-50
2022/09/09 06:43:51;;;;;;;17.48;11.77;;;14.90;92.50;;;;;;4980567;28;20038;-50
2022/09/09 06:46:18;;;;;;;13.02;10.68;;;14.90;92.50;;;;;;4985428;28;20079;-49
2022/09/09 06:48:44;;;;;;;17.33;11.25;;;14.90;92.50;;;;;;5001433;28;20038;-51
2022/09/09 06:51:22;;;;;;;14.30;10.07;;;14.90;92.50;;;;;;4980650;28;20081;-51
2022/09/09 06:53:50;;;;;;;14.73;11.30;;;15.00;92.60;;;;;;4987325;28;20304;-50
2022/09/09 06:56:22;;;;;;;12.90;10.45;;;15.00;92.50;;;;;;4984481;28;20065;-53
2022/09/09 06:58:50;;;;;;;11.73;10.48;;;15.00;92.50;;;;;;4974123;28;20118;-47
2022/09/09 07:01:18;;;;;;;13.10;9.40;;;15.00;92.40;;;;;;4987544;28;20026;-51
2022/09/09 07:03:50;;;;;;;10.57;8.50;;;15.00;92.30;;;;;;4988903;28;20029;-53
2022/09/09 07:06:36;;;;;;;10.25;9.07;;;15.10;92.50;;;;;;4983181;28;20026;-59
2022/09/09 07:09:08;;;;;;;13.38;9.48;;;15.00;92.40;;;;;;4979783;28;20042;-63
2022/09/09 07:11:42;;;;;;;10.52;9.05;;;15.00;92.50;;;;;;4978106;28;20026;-62
2022/09/09 07:14:14;;;;;;;11.00;8.15;;;14.90;92.20;;;;;;4999665;28;20120;-58
2022/09/09 07:16:41;;;;;;;11.73;8.18;;;14.90;92.30;;;;;;4989901;28;20367;-63
2022/09/09 07:19:07;;;;;;;10.80;8.35;;;14.80;92.30;;;;;;4975426;28;20104;-67
2022/09/09 07:21:33;;;;;;;10.85;8.82;;;14.80;92.50;;;;;;4978333;28;20463;-66
2022/09/09 07:24:00;;;;;;;11.38;8.05;;;14.80;92.50;;;;;;4981706;28;20046;-61
2022/09/09 07:26:28;;;;;;;10.50;8.13;;;14.80;92.60;;;;;;4983340;28;20436;-57
2022/09/09 07:28:55;;;;;;;9.55;7.75;;;14.70;92.60;;;;;;4996441;28;20031;-57
2022/09/09 07:31:26;;;;;;;10.43;7.05;;;14.80;92.70;;;;;;4979375;28;20116;-57
2022/09/09 07:33:52;;;;;;;9.00;7.15;;;14.90;92.80;;;;;;5002208;28;20022;-57
2022/09/09 07:36:23;;;;;;;8.52;7.53;;;14.90;92.80;;;;;;4981544;28;20019;-55
2022/09/09 07:38:54;;;;;;;8.52;7.35;;;14.90;92.80;;;;;;4975850;28;20034;-57
2022/09/09 07:41:28;;;;;;;10.73;7.32;;;15.00;92.80;;;;;;4981429;28;20387;-60
2022/09/09 07:43:54;;;;;;;8.90;6.10;;;15.00;92.70;;;;;;4980809;28;20112;-61
2022/09/09 07:46:24;;;;;;;9.68;6.15;;;15.20;92.70;;;;;;4980116;28;20042;-62
2022/09/09 07:48:51;;;;;;;;;;;15.30;92.60;;;;;;4995829;28;20057;-62
2022/09/09 07:51:21;;;;;;;9.18;6.60;;;15.30;92.60;;;;;;4983580;28;20353;-63
2022/09/09 07:53:47;;;;;;;7.60;6.05;;;15.40;92.50;;;;;;4975077;28;20041;-65
2022/09/09 07:56:23;;;;;;;11.52;5.72;;;15.40;92.40;;;;;;4972836;28;20146;-65
2022/09/09 07:58:56;;;;;;;10.50;6.65;;;15.50;92.40;;;;;;4973000;28;20046;-66
2022/09/09 08:01:25;;;;;;;7.38;6.20;;;15.60;92.20;;;;;;4979948;28;20041;-66
2022/09/09 08:03:59;;;;;;;5.75;4.60;;;15.60;92.10;;;;;;4984824;28;20030;-66
2022/09/09 08:06:26;;;;;;;6.07;4.88;;;15.60;92.10;;;;;;4977732;28;20031;-65
2022/09/09 08:08:53;;;;;;;8.02;4.50;;;15.80;92.20;;;;;;4978250;28;20153;-64
2022/09/09 08:11:18;;;;;;;6.70;4.80;;;15.90;92.00;;;;;;4982155;28;20042;-62
2022/09/09 08:13:44;;;;;;;7.75;5.10;;;16.00;91.90;;;;;;4976352;28;20027;-59
2022/09/09 08:16:15;;;;;;;8.30;5.07;;;15.90;91.60;;;;;;4985044;28;20022;-58
2022/09/09 08:18:41;;;;;;;9.60;4.63;;;16.00;91.60;;;;;;4996003;28;20073;-56
2022/09/09 08:21:12;;;;;;;5.68;4.90;;;16.20;91.60;;;;;;4994893;28;20047;-49
2022/09/09 08:23:44;;;;;;;7.20;5.43;;;16.30;91.30;;;;;;4992008;28;20034;-54
2022/09/09 08:26:15;;;;;;;6.38;4.05;;;16.50;91.20;;;;;;4986042;28;20034;-49
2022/09/09 08:28:42;;;;;;;6.80;4.03;;;16.50;91.00;;;;;;4994129;28;20027;-50
2022/09/09 08:31:15;;;;;;;6.07;4.22;;;16.70;90.70;;;;;;4992384;28;20062;-48
2022/09/09 08:33:42;;;;;;;10.27;4.85;;;16.60;90.00;;;;;;4979265;28;20066;-46
2022/09/09 08:36:10;;;;;;;7.65;4.25;;;16.70;90.20;;;;;;4982463;28;20083;-51
2022/09/09 08:38:37;;;;;;;7.50;4.78;;;16.80;90.30;;;;;;4982708;28;20026;-51
2022/09/09 08:41:25;;;;;;;7.50;4.55;;;16.90;89.80;;;;;;4985832;28;20022;-51
2022/09/09 08:44:02;;;;;;;8.80;4.70;;;16.90;90.30;;;;;;4984688;28;20085;-48
2022/09/09 08:47:12;;;;;;;7.03;3.78;;;17.10;90.50;;;;;;4982317;28;20037;-52
2022/09/09 08:50:08;;;;;;;9.75;5.07;;;16.90;89.30;;;;;;4972161;28;20039;-48
2022/09/09 08:52:49;;;;;;;5.82;4.05;;;16.90;89.80;;;;;;4988935;28;20032;-52
2022/09/09 08:55:23;;;;;;;5.53;4.65;;;17.10;89.60;;;;;;4976293;28;20042;-47
2022/09/09 08:57:53;;;;;;;5.60;4.45;;;17.30;89.70;;;;;;4981593;28;20030;-49
2022/09/09 09:00:20;;;;;;;6.10;4.75;;;17.50;90.00;;;;;;4989420;28;20028;-52
2022/09/09 09:03:14;;;;;;;6.88;5.00;;;17.70;89.40;;;;;;4975387;28;20043;-48
2022/09/09 09:05:46;;;;;;;6.05;5.00;;;17.70;88.80;;;;;;4984676;28;20455;-50
2022/09/09 09:08:30;;;;;;;8.43;5.05;;;17.60;87.80;;;;;;4975880;28;20378;-49
2022/09/09 09:11:00;;;;;;;7.07;5.07;;;17.70;88.10;;;;;;4988390;28;20034;-47
2022/09/09 09:13:37;;;;;;;5.97;4.93;;;17.70;88.50;;;;;;4985072;28;20018;-49
2022/09/09 09:16:20;;;;;;;5.68;4.53;;;17.80;88.10;;;;;;4985812;28;20034;-47
2022/09/09 09:18:45;;;;;;;5.80;3.83;;;18.00;88.00;;;;;;4983893;28;20034;-45
2022/09/09 09:21:18;;;;;;;8.48;3.75;;;18.00;88.00;;;;;;4993210;28;20030;-48
2022/09/09 09:23:54;;;;;;;7.63;4.32;;;18.20;88.00;;;;;;4980462;28;20114;-47
2022/09/09 09:26:26;;;;;;;5.78;4.22;;;18.40;87.70;;;;;;4974489;28;20042;-47
2022/09/09 09:28:56;;;;;;;6.30;4.28;;;18.50;87.10;;;;;;4977282;28;20026;-46
2022/09/09 09:31:22;;;;;;;;;;;18.50;86.40;;;;;;4982656;28;20061;-46
2022/09/09 09:33:53;;;;;;;5.40;3.70;;;18.50;86.60;;;;;;4991681;28;19910;-46
2022/09/09 09:36:23;;;;;;;6.57;3.78;;;18.40;86.20;;;;;;4991270;28;20023;-45
2022/09/09 09:39:00;;;;;;;7.43;4.00;;;18.40;86.70;;;;;;4990895;28;20030;-46
2022/09/09 09:41:43;;;;;;;6.82;4.28;;;18.50;86.30;;;;;;4990348;28;20121;-46
2022/09/09 09:44:27;;;;;;;6.68;4.45;;;18.60;86.40;;;;;;4991657;28;20440;-47
2022/09/09 09:47:07;;;;;;;6.85;3.55;;;18.50;85.80;;;;;;4991957;28;20038;-46
2022/09/09 09:49:33;;;;;;;7.20;4.50;;;18.70;86.50;;;;;;4991087;28;20038;-46
2022/09/09 09:52:03;;;;;;;6.03;4.00;;;18.60;84.80;;;;;;4991639;28;20037;-46
2022/09/09 09:54:37;;;;;;;6.60;4.13;;;18.70;85.90;;;;;;4989221;28;20039;-48
2022/09/09 09:57:16;;;;;;;5.90;3.80;;;18.90;85.50;;;;;;4991796;28;20026;-47
2022/09/09 09:59:42;;;;;;;5.78;4.13;;;19.20;85.60;;;;;;4985882;28;20114;-46
2022/09/09 10:02:16;;;;;;;7.35;4.45;;;19.40;84.90;;;;;;5003249;28;20041;-46
2022/09/09 10:04:41;;;;;;;7.72;4.88;;;19.50;84.50;;;;;;4984790;28;20034;-46
2022/09/09 10:07:21;;;;;;;6.93;3.83;;;19.90;84.30;;;;;;4989515;28;20037;-49
2022/09/09 10:09:55;;;;;;;7.82;5.20;;;20.10;82.70;;;;;;4987041;28;20467;-46
2022/09/09 10:12:29;;;;;;;7.30;4.75;;;20.30;82.60;;;;;;4991176;28;20030;-46
2022/09/09 10:15:17;;;;;;;7.43;5.05;;;20.40;81.30;;;;;;4990408;28;20047;-47
2022/09/09 10:17:55;;;;;;;6.78;5.05;;;20.50;81.10;;;;;;4991281;28;20042;-46
2022/09/09 10:20:30;;;;;;;9.00;5.00;;;20.70;81.00;;;;;;4990234;28;20051;-49
2022/09/09 10:23:28;;;;;;;8.90;5.95;;;20.70;79.90;;;;;;4990686;28;20030;-49
2022/09/09 10:26:11;;;;;;;8.20;5.47;;;20.80;80.10;;;;;;4981432;28;20057;-46
2022/09/09 10:28:58;;;;;;;6.63;5.00;;;21.00;80.60;;;;;;4991676;28;20034;-46
2022/09/09 10:32:08;;;;;;;6.10;5.50;;;21.10;79.10;;;;;;4998260;28;20034;-49
2022/09/09 10:34:57;;;;;;;10.30;5.90;;;21.30;79.10;;;;;;4978217;28;20487;-47
2022/09/09 10:37:36;;;;;;;;;;;21.40;78.30;;;;;;4972114;28;20027;-47
2022/09/09 10:40:32;;;;;;;4.68;3.60;;;21.40;76.30;;;;;;4971083;28;19910;-49
2022/09/09 10:43:13;;;;;;;7.82;3.70;;;21.10;76.30;;;;;;4975254;28;20460;-51
2022/09/09 10:45:50;;;;;;;6.70;4.15;;;21.40;77.20;;;;;;4973256;28;20091;-47
2022/09/09 10:48:37;;;;;;;5.95;3.65;;;21.40;75.00;;;;;;5002350;28;20122;-49
2022/09/09 10:51:17;;;;;;;5.80;3.15;;;21.60;76.10;;;;;;4977773;28;20514;-51
2022/09/09 10:53:58;;;;;;;6.10;3.03;;;21.70;75.80;;;;;;4972417;28;20363;-47
2022/09/09 10:56:25;;;;;;;6.70;2.53;;;21.40;74.90;;;;;;4971969;28;20422;-49
2022/09/09 10:58:54;;;;;;;9.98;2.72;;;21.00;74.70;;;;;;4988958;28;20431;-49
2022/09/09 11:01:31;;;;;;;4.88;2.33;;;20.90;74.30;;;;;;4999495;28;20096;-48
2022/09/09 11:04:09;;;;;;;6.72;3.08;;;21.00;75.50;;;;;;4990505;28;20054;-49
2022/09/09 11:06:42;;;;;;;5.63;3.57;;;21.10;76.00;;;;;;4989941;28;20034;-48
2022/09/09 11:09:16;;;;;;;5.45;2.80;;;21.10;75.40;;;;;;4989342;28;20057;-47
2022/09/09 11:11:56;;;;;;;3.75;2.40;;;21.20;74.40;;;;;;4985253;28;20339;-47
2022/09/09 11:14:44;;;;;;;8.40;3.17;;;21.40;74.50;;;;;;5006017;28;20026;-48
2022/09/09 11:17:20;;;;;;;4.00;2.80;;;21.30;73.10;;;;;;4984625;28;20061;-48
2022/09/09 11:19:46;;;;;;;8.20;3.08;;;21.10;72.50;;;;;;4989611;28;20054;-48
2022/09/09 11:22:36;;;;;;;5.55;2.38;;;21.10;74.30;;;;;;4990669;28;20033;-46
2022/09/09 11:25:15;;;;;;;6.00;2.58;;;21.20;73.60;;;;;;4979520;28;20034;-48
2022/09/09 11:28:17;;;;;;;5.50;2.83;;;21.20;73.40;;;;;;4971385;28;20039;-49
2022/09/09 11:30:52;;;;;;;5.88;2.40;;;21.40;71.40;;;;;;4974635;28;20037;-47
2022/09/09 11:33:44;;;;;;;4.75;2.45;;;21.50;72.30;;;;;;5005768;28;20046;-49
2022/09/09 11:36:28;;;;;;;5.47;2.38;;;21.80;73.00;;;;;;4984607;28;20108;-49
2022/09/09 11:39:12;;;;;;;5.45;2.38;;;21.70;69.80;;;;;;5004653;28;20022;-47
2022/09/09 11:41:38;;;;;;;7.20;3.40;;;21.50;72.30;;;;;;4977357;28;20057;-49
2022/09/09 11:44:26;;;;;;;5.35;2.33;;;21.60;72.60;;;;;;4984781;28;20066;-46
2022/09/09 11:46:52;;;;;;;4.75;1.95;;;21.80;69.90;;;;;;4985436;28;20396;-49
2022/09/09 11:49:31;;;;;;;7.15;2.90;;;21.60;71.30;;;;;;4987582;28;20509;-47
2022/09/09 11:51:57;;;;;;;5.97;2.30;;;21.60;71.20;;;;;;4991485;28;20075;-49
2022/09/09 11:54:31;;;;;;;6.72;2.13;;;21.70;72.30;;;;;;4995692;28;20706;-48
2022/09/09 11:57:00;;;;;;;5.65;2.38;;;21.60;70.80;;;;;;4984400;28;20039;-51
2022/09/09 11:59:29;;;;;;;3.22;1.77;;;21.30;69.10;;;;;;4996637;28;20033;-47
2022/09/09 12:02:01;;;;;;;;;;;21.50;72.00;;;;;;5000852;28;20055;-48
2022/09/09 12:04:55;;;;;;;4.10;2.00;;;21.60;70.20;;;;;;4988517;28;20045;-49
2022/09/09 12:07:35;;;;;;;5.90;2.40;;;21.70;70.40;;;;;;5003055;28;20033;-48
2022/09/09 12:10:05;;;;;;;7.43;2.20;;;21.70;71.50;;;;;;5010047;28;20045;-46
2022/09/09 12:12:33;;;;;;;6.53;2.63;;;21.60;72.30;;;;;;4981620;28;20435;-46
2022/09/09 12:15:22;;;;;;;5.57;2.97;;;21.70;71.50;;;;;;4980005;28;20026;-49
2022/09/09 12:17:53;;;;;;;7.60;2.53;;;21.40;71.30;;;;;;4994314;28;20103;-46
2022/09/09 12:20:24;;;;;;;7.05;2.78;;;21.10;71.60;;;;;;4987317;28;20177;-47
2022/09/09 12:23:12;;;;;;;10.23;3.53;;;20.90;72.20;;;;;;5001544;28;20133;-45
2022/09/09 12:26:15;;;;;;;5.40;2.60;;;20.60;73.40;;;;;;4996458;28;20084;-46
2022/09/09 12:29:02;;;;;;;6.60;3.03;;;20.20;74.20;;;;;;5003507;28;20113;-49
2022/09/09 12:31:42;;;;;;;6.20;2.38;;;19.90;75.20;;;;;;4977698;28;20459;-49
2022/09/09 12:34:41;;;;;;;8.38;2.90;;;19.60;76.00;;;;;;4991962;28;20084;-50
2022/09/09 12:37:35;;;;;;;8.02;2.35;;;19.40;77.00;;;;;;4984797;28;20023;-47
2022/09/09 12:40:21;;;;;;;6.93;2.30;;;19.30;77.30;;;;;;5010064;28;20032;-47
2022/09/09 12:42:46;;;;;;;3.38;1.98;;;19.20;77.90;;;;;;4985304;28;20046;-46
2022/09/09 12:45:21;;;;;;;3.72;1.58;;;18.90;77.70;;;;;;4980359;28;20109;-46
2022/09/09 12:47:57;;;;;;;6.72;2.58;;;18.70;77.80;;;;;;4990779;28;20066;-64
2022/09/09 12:50:34;;;;;;;7.43;1.98;;;18.60;79.40;;;;;;4987010;28;20030;-59
2022/09/09 12:53:10;;;;;;;6.13;1.90;;;18.40;80.70;;;;;;4995632;28;20026;-60
2022/09/09 12:55:39;;;;;;;5.55;2.15;;;18.20;81.60;;;;;;5003564;28;20089;-60
2022/09/09 12:58:06;;;;;;;7.35;2.22;;;18.10;82.50;;;;;;4975622;28;20027;-60
2022/09/09 13:00:36;;;;;;;5.47;1.75;;;17.90;82.50;;;;;;4977084;28;20108;-59
2022/09/09 13:03:17;;;;;;;4.05;1.02;;;17.90;83.80;;;;;;4979733;28;20044;-58
2022/09/09 13:05:43;;;;;;;2.83;1.13;;;17.70;82.20;;;;;;4965232;28;20018;-57
2022/09/09 13:08:13;;;;;;;4.70;1.20;;;17.70;82.40;;;;;;4993133;28;20048;-56
2022/09/09 13:10:44;;;;;;;3.75;1.30;;;17.70;82.50;;;;;;4998546;28;20023;-54